Kirikkale, Turkey
Current Conditions -  °F | °C
As of 7:20 AM on Thursday 23 Oct 2014 (Local Time) from LTAC Reporting Station
Clear Clear  
Wind Chill: 39°   Ceiling: Unl
Heat Index: 39°   Visibility: 6mi
Dew Point: 36°   Wind: 2mph
Humidity: 87%   Direction: NA
Pressure: 29.97"   Gusts: NA
Location:  39.85°N, 33.52°E
Report Text: LTAC 230420Z VRB02KT CAVOK 04/02 Q1015 NOSIG
Loading
Personal Weather Stations






























Interactive Weather Map
Tropical Storm Tracking
New forecast layout! Learn more

10-Day Weather Forecast

Advertisements
Track Severe Weather on mobile